createdAt,value
2019-04-20T00:02:15.654Z,64.24
2019-04-20T00:04:43.141Z,64.25
2019-04-20T00:07:12.282Z,64.29
2019-04-20T00:09:45.570Z,64.16
2019-04-20T00:12:19.387Z,64.21
2019-04-20T00:14:42.528Z,64.47
2019-04-20T00:17:13.748Z,64.35
2019-04-20T00:19:47.805Z,64.59
2019-04-20T00:22:18.788Z,64.53
2019-04-20T00:25:10.533Z,64.54
2019-04-20T00:28:13.065Z,64.60
2019-04-20T00:30:49.674Z,64.54
2019-04-20T00:33:07.714Z,64.65
2019-04-20T00:35:27.209Z,64.75
2019-04-20T00:37:57.518Z,64.47
2019-04-20T00:40:28.595Z,64.52
2019-04-20T00:42:59.827Z,64.65
2019-04-20T00:45:31.462Z,64.65
2019-04-20T00:48:08.066Z,64.68
2019-04-20T00:50:44.393Z,64.77
2019-04-20T00:53:14.859Z,64.75
2019-04-20T00:55:38.105Z,65.00
2019-04-20T00:58:16.189Z,64.96
2019-04-20T01:01:04.246Z,65.18
2019-04-20T01:03:24.865Z,65.05
2019-04-20T01:06:09.748Z,65.03
2019-04-20T01:08:34.056Z,65.10
2019-04-20T01:11:04.165Z,65.28
2019-04-20T01:13:42.141Z,65.17
2019-04-20T01:16:08.422Z,64.92
2019-04-20T01:18:34.106Z,64.82
2019-04-20T01:21:06.715Z,64.68
2019-04-20T01:23:40.107Z,64.44
2019-04-20T01:26:09.288Z,64.35
2019-04-20T01:28:46.393Z,64.08
2019-04-20T01:31:17.734Z,64.22
2019-04-20T01:33:46.170Z,64.20
2019-04-20T01:36:25.504Z,64.09
2019-04-20T01:38:52.211Z,64.18
2019-04-20T01:41:09.629Z,63.99
2019-04-20T01:43:39.514Z,64.38
2019-04-20T01:46:15.022Z,63.70
2019-04-20T01:48:41.493Z,64.20
2019-04-20T01:51:17.310Z,64.14
2019-04-20T01:54:02.202Z,64.18
2019-04-20T01:56:27.729Z,64.16
2019-04-20T01:59:15.967Z,64.07
2019-04-20T02:01:45.988Z,64.13
2019-04-20T02:04:48.281Z,64.53
2019-04-20T02:07:18.445Z,64.56
2019-04-20T02:09:53.569Z,64.48
2019-04-20T02:12:22.303Z,64.29
2019-04-20T02:14:53.666Z,64.39
2019-04-20T02:17:28.304Z,64.50
2019-04-20T02:20:14.362Z,64.53
2019-04-20T02:22:40.799Z,64.72
2019-04-20T02:24:50.937Z,64.86
2019-04-20T02:27:29.981Z,65.00
2019-04-20T02:30:25.674Z,65.03
2019-04-20T02:33:09.782Z,64.89
2019-04-20T02:36:02.816Z,64.85
2019-04-20T02:41:22.591Z,65.05
2019-04-20T02:44:06.369Z,64.75
2019-04-20T02:46:14.794Z,65.07
2019-04-20T02:49:06.114Z,65.12
2019-04-20T02:51:30.201Z,65.46
2019-04-20T02:54:03.561Z,65.26
2019-04-20T02:59:13.334Z,65.04
2019-04-20T03:01:30.906Z,65.17
2019-04-20T03:03:50.432Z,65.44
2019-04-20T03:06:29.549Z,65.34
2019-04-20T03:09:08.973Z,65.22
2019-04-20T03:11:46.572Z,65.41
2019-04-20T03:14:02.207Z,65.09
2019-04-20T03:16:36.774Z,64.99
2019-04-20T03:19:06.803Z,64.89
2019-04-20T03:21:44.280Z,64.82
2019-04-20T03:24:23.823Z,64.87
2019-04-20T03:26:47.985Z,64.87
2019-04-20T03:29:50.941Z,64.93
2019-04-20T03:32:57.605Z,64.91
2019-04-20T03:37:27.984Z,65.02
2019-04-20T03:39:46.450Z,65.34
2019-04-20T03:42:01.023Z,65.31
2019-04-20T03:44:32.903Z,65.09
2019-04-20T03:47:07.925Z,64.88
2019-04-20T03:49:55.005Z,65.12
2019-04-20T03:52:34.062Z,65.22
2019-04-20T03:55:34.071Z,65.32
2019-04-20T03:58:14.322Z,65.36
2019-04-20T04:00:50.494Z,65.57
2019-04-20T04:03:41.117Z,65.61
2019-04-20T04:06:16.145Z,65.65
2019-04-20T04:08:39.002Z,65.81
2019-04-20T04:11:24.445Z,65.72
2019-04-20T04:13:33.779Z,65.84
2019-04-20T04:16:07.899Z,65.92
2019-04-20T04:18:38.653Z,66.02
2019-04-20T04:21:09.838Z,65.98
2019-04-20T04:23:51.033Z,65.84
2019-04-20T04:26:22.041Z,66.32
2019-04-20T04:28:50.210Z,66.54
2019-04-20T04:31:28.023Z,66.53
2019-04-20T04:34:07.875Z,66.65
2019-04-20T04:36:22.224Z,66.64
2019-04-20T04:38:58.923Z,66.63
2019-04-20T04:41:27.056Z,66.79
2019-04-20T04:44:00.671Z,66.83
2019-04-20T04:46:10.230Z,66.79
2019-04-20T04:48:43.988Z,66.82
2019-04-20T04:51:20.030Z,66.66
2019-04-20T04:53:50.835Z,66.72
2019-04-20T04:56:17.048Z,66.67
2019-04-20T04:58:42.710Z,66.30
2019-04-20T05:01:18.778Z,66.33
2019-04-20T05:04:11.530Z,66.32
2019-04-20T05:06:32.996Z,66.03
2019-04-20T05:08:55.013Z,65.94
2019-04-20T05:11:21.621Z,65.88
2019-04-20T05:13:58.306Z,66.05
2019-04-20T05:16:40.954Z,65.68
2019-04-20T05:19:17.346Z,65.46
2019-04-20T05:22:21.905Z,65.23
2019-04-20T05:24:43.817Z,64.92
2019-04-20T05:27:37.581Z,64.35
2019-04-20T05:29:44.672Z,64.16
2019-04-20T05:32:19.655Z,63.24
2019-04-20T05:35:05.083Z,63.13
2019-04-20T05:37:43.754Z,62.51
2019-04-20T05:40:10.460Z,61.77
2019-04-20T05:42:35.884Z,61.23
2019-04-20T05:45:07.631Z,60.36
2019-04-20T05:47:38.754Z,60.01
2019-04-20T05:50:05.026Z,59.52
2019-04-20T05:52:51.013Z,59.22
2019-04-20T05:55:14.411Z,58.69
2019-04-20T05:57:42.708Z,58.14
2019-04-20T06:00:14.179Z,57.46
2019-04-20T06:02:45.141Z,57.33
2019-04-20T06:05:17.300Z,56.93
2019-04-20T06:07:48.746Z,56.49
2019-04-20T06:10:22.244Z,55.85
2019-04-20T06:12:48.267Z,55.02
2019-04-20T06:15:36.713Z,54.48
2019-04-20T06:18:03.875Z,54.23
2019-04-20T06:20:41.289Z,53.80
2019-04-20T06:23:42.750Z,52.69
2019-04-20T06:26:22.760Z,50.99
2019-04-20T06:28:30.017Z,46.89
2019-04-20T06:30:59.433Z,43.41
2019-04-20T06:36:47.422Z,34.35
2019-04-20T06:39:16.188Z,30.29
2019-04-20T06:42:02.229Z,28.29
2019-04-20T06:44:16.035Z,25.60
2019-04-20T06:46:57.303Z,24.06
2019-04-20T06:52:01.692Z,23.88
2019-04-20T06:54:35.619Z,22.11
2019-04-20T06:57:07.214Z,22.19
2019-04-20T07:02:17.336Z,19.72
2019-04-20T07:07:14.682Z,18.61
2019-04-20T07:09:49.533Z,18.58
2019-04-20T07:12:06.414Z,18.32
2019-04-20T07:14:35.880Z,17.66
2019-04-20T07:17:29.766Z,18.21
2019-04-20T07:19:56.096Z,17.86
2019-04-20T07:27:35.331Z,16.59
2019-04-20T07:30:07.887Z,16.09
2019-04-20T07:32:44.102Z,17.23
2019-04-20T07:35:12.625Z,17.45
2019-04-20T07:40:15.110Z,18.67
2019-04-20T07:42:46.801Z,18.73
2019-04-20T07:45:21.665Z,19.21
2019-04-20T07:48:07.430Z,19.86
2019-04-20T07:50:13.634Z,19.65
2019-04-20T07:52:39.684Z,21.30
2019-04-20T07:55:33.650Z,22.27
2019-04-20T07:57:45.147Z,22.92
2019-04-20T08:00:26.055Z,23.01
2019-04-20T08:03:18.451Z,21.58
2019-04-20T08:05:45.869Z,23.67
2019-04-20T08:08:19.492Z,25.77
2019-04-20T08:10:47.161Z,24.77
2019-04-20T08:13:35.430Z,24.61
2019-04-20T08:16:00.652Z,22.61
2019-04-20T08:18:27.972Z,22.99
2019-04-20T08:20:58.421Z,22.08
2019-04-20T08:23:40.247Z,24.51
2019-04-20T08:25:46.811Z,23.26
2019-04-20T08:28:16.796Z,22.66
2019-04-20T08:31:21.844Z,21.70
2019-04-20T08:34:07.497Z,20.14
2019-04-20T08:36:33.245Z,21.18
2019-04-20T08:41:25.090Z,19.84
2019-04-20T08:44:18.716Z,19.86
2019-04-20T08:46:40.353Z,18.46
2019-04-20T08:49:10.347Z,18.71
2019-04-20T08:51:41.914Z,19.90
2019-04-20T08:54:03.357Z,19.32
2019-04-20T08:56:30.529Z,19.52
2019-04-20T08:58:48.342Z,19.53
2019-04-20T09:01:22.914Z,20.99
2019-04-20T09:03:59.874Z,20.58
2019-04-20T09:06:33.686Z,19.91
2019-04-20T09:09:10.676Z,19.40
2019-04-20T09:11:45.235Z,19.44
2019-04-20T09:13:55.733Z,23.57
2019-04-20T09:16:31.841Z,21.18
2019-04-20T09:18:59.919Z,19.79
2019-04-20T09:21:35.538Z,20.61
2019-04-20T09:24:21.727Z,19.47
2019-04-20T09:26:43.236Z,20.46
2019-04-20T09:29:11.127Z,19.15
2019-04-20T09:31:43.627Z,19.73
2019-04-20T09:34:20.054Z,20.23
2019-04-20T09:37:16.474Z,19.83
2019-04-20T09:40:10.926Z,22.04
2019-04-20T09:42:36.226Z,21.26
2019-04-20T09:45:07.552Z,19.81
2019-04-20T09:47:43.576Z,20.00
2019-04-20T09:50:24.763Z,20.26
2019-04-20T09:52:57.147Z,20.96
2019-04-20T09:55:21.818Z,23.43
2019-04-20T09:57:59.267Z,19.44
2019-04-20T10:00:23.596Z,19.40
2019-04-20T10:02:42.832Z,19.09
2019-04-20T10:05:13.479Z,23.18
2019-04-20T10:07:43.878Z,22.92
2019-04-20T10:10:22.669Z,21.79
2019-04-20T10:12:44.258Z,17.94
2019-04-20T10:15:19.048Z,20.71
2019-04-20T10:17:45.601Z,21.56
2019-04-20T10:20:22.394Z,20.11
2019-04-20T10:22:46.635Z,19.62
2019-04-20T10:25:15.535Z,21.61
2019-04-20T10:27:45.419Z,20.04
2019-04-20T10:30:14.761Z,20.97
2019-04-20T10:32:47.266Z,20.33
2019-04-20T10:35:16.863Z,20.24
2019-04-20T10:37:51.338Z,21.68
2019-04-20T10:40:35.830Z,22.58
2019-04-20T10:42:50.888Z,20.96
2019-04-20T10:45:21.163Z,20.16
2019-04-20T10:47:50.739Z,20.63
2019-04-20T10:50:22.979Z,19.95
2019-04-20T10:52:52.048Z,17.61
2019-04-20T10:55:20.910Z,19.80
2019-04-20T10:57:49.751Z,20.12
2019-04-20T11:00:23.781Z,20.48
2019-04-20T11:02:52.763Z,21.41
2019-04-20T11:05:24.586Z,20.50
2019-04-20T11:07:54.691Z,20.93
2019-04-20T11:10:28.531Z,20.20
2019-04-20T11:12:54.217Z,19.58
2019-04-20T11:15:24.154Z,19.90
2019-04-20T11:17:53.339Z,20.42
2019-04-20T11:20:23.419Z,18.59
2019-04-20T11:22:52.657Z,18.43
2019-04-20T11:25:22.075Z,18.71
2019-04-20T11:27:52.271Z,17.73
2019-04-20T11:30:22.496Z,17.89
2019-04-20T11:32:51.908Z,18.49
2019-04-20T11:35:28.050Z,21.32
2019-04-20T11:37:51.679Z,20.37
2019-04-20T11:40:21.155Z,19.36
2019-04-20T11:42:50.124Z,20.24
2019-04-20T11:45:20.449Z,17.39
2019-04-20T11:47:49.638Z,16.91
2019-04-20T11:50:19.823Z,18.35
2019-04-20T11:52:49.901Z,19.64
2019-04-20T11:55:20.191Z,19.65
2019-04-20T11:57:49.477Z,19.12
2019-04-20T12:00:24.896Z,18.87
2019-04-20T12:03:21.411Z,18.83
2019-04-20T12:05:46.633Z,18.40
2019-04-20T12:08:12.891Z,20.78
2019-04-20T12:10:44.717Z,20.49
2019-04-20T12:13:14.547Z,21.50
2019-04-20T12:15:43.465Z,20.91
2019-04-20T12:18:13.404Z,21.65
2019-04-20T12:20:42.979Z,18.10
2019-04-20T12:23:12.647Z,17.78
2019-04-20T12:25:44.203Z,19.32
2019-04-20T12:28:13.566Z,19.32
2019-04-20T12:30:43.880Z,18.74
2019-04-20T12:33:13.580Z,18.55
2019-04-20T12:35:42.675Z,20.08
2019-04-20T12:38:12.583Z,19.81
2019-04-20T12:40:42.063Z,19.27
2019-04-20T12:43:11.165Z,24.32
2019-04-20T12:45:40.065Z,23.11
2019-04-20T12:48:08.875Z,21.92
2019-04-20T12:50:37.755Z,20.46
2019-04-20T12:53:06.676Z,20.16
2019-04-20T12:55:36.744Z,19.00
2019-04-20T12:58:08.267Z,22.34
2019-04-20T13:00:45.874Z,21.45
2019-04-20T13:03:15.136Z,21.32
2019-04-20T13:05:45.742Z,22.81
2019-04-20T13:08:24.954Z,21.71
2019-04-20T13:10:50.867Z,24.11
2019-04-20T13:13:28.813Z,20.19
2019-04-20T13:16:10.283Z,23.70
2019-04-20T13:18:45.463Z,19.72
2019-04-20T13:21:14.594Z,19.19
2019-04-20T13:23:44.934Z,19.61
2019-04-20T13:26:15.537Z,20.43
2019-04-20T13:28:44.615Z,19.14
2019-04-20T13:31:13.656Z,19.69
2019-04-20T13:33:43.253Z,20.26
2019-04-20T13:36:12.516Z,21.25
2019-04-20T13:38:41.588Z,22.55
2019-04-20T13:41:11.645Z,22.76
2019-04-20T13:43:41.862Z,23.08
2019-04-20T13:46:11.220Z,23.86
2019-04-20T13:48:39.992Z,22.02
2019-04-20T13:51:09.938Z,21.62
2019-04-20T13:53:39.277Z,21.56
2019-04-20T13:56:09.654Z,22.00
2019-04-20T13:58:58.082Z,24.69
2019-04-20T14:01:53.177Z,21.93
2019-04-20T14:04:26.565Z,21.16
2019-04-20T14:06:57.552Z,22.30
2019-04-20T14:09:27.586Z,20.09
2019-04-20T14:12:04.742Z,21.76
2019-04-20T14:14:27.111Z,20.85
2019-04-20T14:16:57.126Z,21.34
2019-04-20T14:19:27.268Z,19.41
2019-04-20T14:21:56.521Z,20.65
2019-04-20T14:24:26.696Z,19.48
2019-04-20T14:26:56.914Z,20.29
2019-04-20T14:29:27.296Z,21.28
2019-04-20T14:32:00.628Z,21.37
2019-04-20T14:34:29.317Z,21.25
2019-04-20T14:37:00.104Z,19.45
2019-04-20T14:39:30.250Z,19.76
2019-04-20T14:42:00.383Z,20.80
2019-04-20T14:44:29.910Z,20.63
2019-04-20T14:47:00.097Z,23.09
2019-04-20T14:49:28.910Z,21.01
2019-04-20T14:51:59.804Z,20.07
2019-04-20T14:54:29.653Z,22.63
2019-04-20T14:56:59.197Z,21.01
2019-04-20T14:59:32.085Z,20.31
2019-04-20T15:02:10.493Z,20.53
2019-04-20T15:04:40.948Z,19.20
2019-04-20T15:07:10.846Z,22.35
2019-04-20T15:09:40.636Z,19.11
2019-04-20T15:12:10.881Z,19.94
2019-04-20T15:14:40.794Z,19.47
2019-04-20T15:17:12.510Z,18.94
2019-04-20T15:19:57.226Z,19.18
2019-04-20T15:22:59.290Z,19.87
2019-04-20T15:25:29.710Z,19.22
2019-04-20T15:27:58.738Z,18.75
2019-04-20T15:30:27.781Z,18.96
2019-04-20T15:32:56.904Z,20.70
2019-04-20T15:35:26.341Z,21.26
2019-04-20T15:37:55.410Z,20.51
2019-04-20T15:40:24.457Z,20.08
2019-04-20T15:43:03.603Z,26.18
2019-04-20T15:45:25.293Z,27.47
2019-04-20T15:47:54.304Z,28.97
2019-04-20T15:50:23.287Z,28.06
2019-04-20T15:52:55.290Z,28.20
2019-04-20T15:55:30.372Z,27.85
2019-04-20T15:57:55.660Z,26.19
2019-04-20T16:00:24.680Z,26.27
2019-04-20T16:02:59.115Z,25.60
2019-04-20T16:05:35.628Z,25.66
2019-04-20T16:08:28.027Z,27.39
2019-04-20T16:10:57.343Z,27.56
2019-04-20T16:13:35.029Z,23.01
2019-04-20T16:15:58.098Z,21.57
2019-04-20T16:18:27.352Z,23.46
2019-04-20T16:21:05.457Z,23.79
2019-04-20T16:23:28.322Z,24.02
2019-04-20T16:26:05.887Z,24.08
2019-04-20T16:28:35.356Z,26.74
2019-04-20T16:31:08.277Z,25.73
2019-04-20T16:33:38.730Z,23.83
2019-04-20T16:36:08.221Z,25.41
2019-04-20T16:38:38.250Z,26.15
2019-04-20T16:41:08.391Z,25.24
2019-04-20T16:43:41.438Z,24.17
2019-04-20T16:46:08.953Z,23.41
2019-04-20T16:48:38.072Z,24.83
2019-04-20T16:51:07.020Z,23.23
2019-04-20T16:53:41.715Z,23.29
2019-04-20T16:56:10.659Z,22.79
2019-04-20T16:58:39.995Z,22.41
2019-04-20T17:01:11.877Z,22.74
2019-04-20T17:03:51.953Z,23.40
2019-04-20T17:06:11.828Z,22.35
2019-04-20T17:08:42.727Z,22.32
2019-04-20T17:11:11.764Z,22.17
2019-04-20T17:13:47.884Z,23.05
2019-04-20T17:16:11.286Z,22.83
2019-04-20T17:18:41.382Z,22.27
2019-04-20T17:21:16.573Z,22.19
2019-04-20T17:23:43.382Z,22.31
2019-04-20T17:26:14.709Z,24.11
2019-04-20T17:28:55.430Z,24.95
2019-04-20T17:31:39.704Z,25.62
2019-04-20T17:34:29.848Z,26.90
2019-04-20T17:36:42.319Z,25.40
2019-04-20T17:39:15.751Z,24.52
2019-04-20T17:42:00.435Z,24.76
2019-04-20T17:44:34.387Z,24.16
2019-04-20T17:46:58.688Z,25.07
2019-04-20T17:49:31.474Z,23.47
2019-04-20T17:52:12.264Z,23.07
2019-04-20T17:54:39.783Z,23.93
2019-04-20T17:57:09.334Z,24.27
2019-04-20T17:59:44.875Z,24.32
2019-04-20T18:02:48.659Z,25.13
2019-04-20T18:05:22.930Z,25.40
2019-04-20T18:07:52.474Z,26.64
2019-04-20T18:10:23.108Z,26.04
2019-04-20T18:12:40.926Z,21.51
2019-04-20T18:15:23.047Z,22.63
2019-04-20T18:18:28.507Z,23.88
2019-04-20T18:20:45.038Z,24.78
2019-04-20T18:23:13.980Z,25.77
2019-04-20T18:26:07.879Z,26.27
2019-04-20T18:28:27.528Z,25.30
2019-04-20T18:31:02.265Z,25.41
2019-04-20T18:33:33.020Z,27.28
2019-04-20T18:36:00.425Z,25.87
2019-04-20T18:38:31.472Z,27.01
2019-04-20T18:41:05.597Z,27.49
2019-04-20T18:43:31.365Z,29.24
2019-04-20T18:46:20.410Z,28.08
2019-04-20T18:48:54.389Z,27.22
2019-04-20T18:51:03.914Z,27.54
2019-04-20T18:53:39.498Z,28.50
2019-04-20T18:56:04.700Z,28.94
2019-04-20T18:58:35.342Z,29.21
2019-04-20T19:01:05.346Z,29.45
2019-04-20T19:03:40.102Z,29.03
2019-04-20T19:06:06.053Z,30.31
2019-04-20T19:08:40.491Z,30.88
2019-04-20T19:11:10.994Z,32.06
2019-04-20T19:13:45.878Z,31.90
2019-04-20T19:16:27.547Z,32.10
2019-04-20T19:19:06.306Z,32.61
2019-04-20T19:21:24.959Z,32.40
2019-04-20T19:24:03.408Z,34.37
2019-04-20T19:26:25.566Z,33.45
2019-04-20T19:28:58.320Z,32.98
2019-04-20T19:31:42.371Z,33.54
2019-04-20T19:34:16.832Z,34.12
2019-04-20T19:36:34.790Z,33.43
2019-04-20T19:39:15.189Z,32.55
2019-04-20T19:41:39.027Z,33.06
2019-04-20T19:44:13.499Z,33.16
2019-04-20T19:47:04.921Z,32.94
2019-04-20T19:49:18.335Z,32.56
2019-04-20T19:52:02.809Z,31.41
2019-04-20T19:54:24.248Z,31.02
2019-04-20T19:56:49.772Z,32.50
2019-04-20T19:59:16.193Z,32.41
2019-04-20T20:01:36.233Z,32.38
2019-04-20T20:04:08.219Z,32.37
2019-04-20T20:06:45.359Z,32.58
2019-04-20T20:09:12.290Z,32.77
2019-04-20T20:11:42.888Z,32.90
2019-04-20T20:14:13.076Z,32.99
2019-04-20T20:16:58.850Z,33.45
2019-04-20T20:19:29.484Z,32.91
2019-04-20T20:22:00.272Z,32.73
2019-04-20T20:24:17.451Z,34.31
2019-04-20T20:26:53.375Z,36.64
2019-04-20T20:29:25.088Z,36.69
2019-04-20T20:32:08.499Z,35.26
2019-04-20T20:34:29.079Z,36.36
2019-04-20T20:36:59.864Z,35.70
2019-04-20T20:39:27.734Z,36.49
2019-04-20T20:42:01.549Z,37.44
2019-04-20T20:44:35.458Z,36.93
2019-04-20T20:47:06.016Z,38.87
2019-04-20T20:49:47.306Z,38.59
2019-04-20T20:52:18.057Z,38.08
2019-04-20T20:54:41.284Z,38.27
2019-04-20T20:57:05.645Z,38.92
2019-04-20T20:59:41.091Z,40.00
2019-04-20T21:02:11.588Z,39.37
2019-04-20T21:04:33.502Z,39.89
2019-04-20T21:07:02.744Z,38.64
2019-04-20T21:09:31.805Z,39.61
2019-04-20T21:12:07.009Z,39.10
2019-04-20T21:14:35.427Z,39.78
2019-04-20T21:17:15.198Z,40.05
2019-04-20T21:19:59.355Z,40.63
2019-04-20T21:22:22.678Z,41.74
2019-04-20T21:24:51.117Z,42.95
2019-04-20T21:27:22.133Z,43.19
2019-04-20T21:29:54.353Z,43.15
2019-04-20T21:32:23.701Z,41.94
2019-04-20T21:35:00.627Z,42.31
2019-04-20T21:37:27.249Z,43.58
2019-04-20T21:40:01.471Z,43.58
2019-04-20T21:42:34.773Z,44.25
2019-04-20T21:45:10.838Z,44.12
2019-04-20T21:47:36.315Z,44.97
2019-04-20T21:50:21.495Z,44.38
2019-04-20T21:52:40.870Z,45.44
2019-04-20T21:55:07.915Z,44.96
2019-04-20T21:57:43.272Z,46.16
2019-04-20T22:00:20.333Z,44.13
2019-04-20T22:02:51.312Z,45.59
2019-04-20T22:05:13.609Z,46.88
2019-04-20T22:07:44.241Z,45.44
2019-04-20T22:10:20.243Z,45.79
2019-04-20T22:12:48.985Z,46.21
2019-04-20T22:15:23.579Z,45.58
2019-04-20T22:17:46.341Z,46.40
2019-04-20T22:20:24.848Z,46.91
2019-04-20T22:22:59.781Z,46.17
2019-04-20T22:25:40.803Z,45.96
2019-04-20T22:27:50.390Z,45.54
2019-04-20T22:30:19.922Z,45.23
2019-04-20T22:32:50.672Z,45.47
2019-04-20T22:35:20.878Z,45.60
2019-04-20T22:38:06.992Z,45.99
2019-04-20T22:40:33.315Z,46.64
2019-04-20T22:43:02.165Z,46.10
2019-04-20T22:45:34.226Z,47.45
2019-04-20T22:48:07.266Z,47.82
2019-04-20T22:50:46.121Z,48.13
2019-04-20T22:53:18.004Z,48.14
2019-04-20T22:56:00.343Z,49.34
2019-04-20T22:58:22.597Z,49.15
2019-04-20T23:00:42.153Z,48.44
2019-04-20T23:03:05.334Z,49.83
2019-04-20T23:05:34.210Z,50.02
2019-04-20T23:08:04.497Z,48.97
2019-04-20T23:10:37.726Z,49.50
2019-04-20T23:13:05.269Z,49.10
2019-04-20T23:15:34.326Z,49.63
2019-04-20T23:18:04.279Z,49.54
2019-04-20T23:20:36.185Z,48.93
2019-04-20T23:23:04.991Z,48.39
2019-04-20T23:25:33.879Z,48.45
2019-04-20T23:28:06.432Z,49.24
2019-04-20T23:30:37.516Z,49.02
2019-04-20T23:33:04.298Z,48.85
2019-04-20T23:35:36.839Z,48.90
2019-04-20T23:38:11.196Z,48.75
2019-04-20T23:40:34.691Z,48.36
2019-04-20T23:43:29.015Z,49.52
2019-04-20T23:46:25.665Z,48.78
2019-04-20T23:49:18.695Z,48.83
2019-04-20T23:52:05.972Z,48.38
2019-04-20T23:54:18.749Z,50.56
2019-04-20T23:56:43.869Z,50.44
2019-04-20T23:59:12.898Z,49.94
